You are not logged in, Click here to log in
機場資訊:ZUGY Welcome to Taiwan Airways 台灣虛擬航空
ICAO: ZUGY Country: Guiyang
Latitude: 26.5385 Longitude: 106.801
Total Arrivals: 1 Total Departures: 1
Latest Arrival: CZ6578 (ZSPD-ZUGY)CHU. CHUHAO Latest Departure: FS99 (ZUGY-ZGGG)CHU. CHUHAO
Scenery: http://en.wikipedia.org/wiki/Anshun_Huangguoshu_Airport
METAR : ZUGY 141800Z 04004MPS 9999 BKN015 OVC040 14/13 Q1027 NOSIG

Longdongbao Airport